Time;durP1;ratioP1;P1;durP2;ratioP2;P2;SDS_P1;SDS_P2;PMS_P1;PMS_P2;Temp;Humidity;BMP_temperature;BMP_pressure;BME280_temperature;BME280_humidity;BME280_pressure;Samples;Min_cycle;Max_cycle;Signal;HPM_P1;HPM_P2
2023/10/27 05:12:04;;;;;;;3.05;1.65;;;12.20;99.90;;;;;;4980361;28;20218;-85
2023/10/27 05:14:32;;;;;;;1.88;1.50;;;12.00;99.90;;;;;;4974530;28;20214;-82
2023/10/27 05:16:58;;;;;;;1.80;1.23;;;12.10;99.90;;;;;;4980239;28;20188;-84
2023/10/27 05:19:24;;;;;;;1.73;1.53;;;12.20;99.90;;;;;;4976001;28;20207;-82
2023/10/27 05:21:50;;;;;;;3.43;1.40;;;12.30;99.90;;;;;;4980770;28;20238;-81
2023/10/27 05:24:15;;;;;;;3.13;1.90;;;13.00;99.90;;;;;;4990639;28;20486;-81
2023/10/27 05:26:41;;;;;;;1.83;1.30;;;11.90;99.90;;;;;;4980358;28;20211;-82
2023/10/27 05:29:07;;;;;;;2.80;1.40;;;12.20;99.90;;;;;;4984200;28;20415;-84
2023/10/27 05:31:34;;;;;;;1.80;1.30;;;11.80;99.90;;;;;;4995762;28;20519;-82
2023/10/27 05:34:00;;;;;;;1.95;1.80;;;12.10;99.90;;;;;;4987741;28;20243;-82
2023/10/27 05:36:25;;;;;;;2.80;1.40;;;11.70;99.90;;;;;;4983263;28;20192;-82
2023/10/27 05:38:51;;;;;;;2.73;1.43;;;12.10;99.90;;;;;;4985714;28;20238;-82
2023/10/27 05:41:18;;;;;;;2.67;1.80;;;11.70;99.90;;;;;;4988446;28;20188;-82
2023/10/27 05:43:43;;;;;;;2.33;1.98;;;12.30;99.90;;;;;;4985565;28;20227;-82
2023/10/27 05:46:13;;;;;;;2.03;1.67;;;11.90;99.90;;;;;;4984408;28;20206;-93
2023/10/27 05:48:39;;;;;;;2.10;1.50;;;11.40;99.90;;;;;;4978778;28;20196;-92
2023/10/27 05:51:06;;;;;;;1.97;1.50;;;11.80;99.90;;;;;;4979081;28;20188;-93
2023/10/27 05:53:31;;;;;;;2.42;1.60;;;11.60;99.90;;;;;;4979309;28;20242;-93
2023/10/27 05:55:57;;;;;;;2.03;1.83;;;12.00;99.90;;;;;;4991394;28;20183;-94
2023/10/27 05:59:35;;;;;;;;;;;;;;;;;;;;;
2023/10/27 06:04:43;;;;;;;2.40;1.90;;;11.50;99.90;;;;;;5018064;23;20241;-93
2023/10/27 06:07:27;;;;;;;;;;;;;;;;;;;;;
2023/10/27 06:10:35;;;;;;;1.65;1.15;;;13.50;99.90;;;;;;4953415;28;20230;-92
2023/10/27 06:15:38;;;;;;;2.75;1.50;;;12.30;99.90;;;;;;4994431;23;20235;-92
2023/10/27 06:18:52;;;;;;;;;;;;;;;;;;;;;
2023/10/27 06:22:09;;;;;;;1.88;1.45;;;12.10;99.90;;;;;;4974890;28;20223;-92
2023/10/27 06:25:26;;;;;;;2.97;1.67;;;12.30;99.90;;;;;;4944778;28;21154;-93
2023/10/27 06:28:23;;;;;;;1.88;1.77;;;12.10;99.90;;;;;;4947355;28;20663;-92
2023/10/27 06:51:58;;;;;;;1.20;0.90;;;11.60;99.90;;;;;;4936846;29;20192;-94
2023/10/27 06:54:32;;;;;;;1.52;0.95;;;12.20;99.90;;;;;;4921307;29;20194;-93
2023/10/27 06:56:58;;;;;;;1.35;0.82;;;14.10;99.90;;;;;;4923639;29;20175;-93
2023/10/27 06:59:34;;;;;;;1.03;0.87;;;13.50;99.90;;;;;;4951489;29;20217;-93
2023/10/27 07:02:03;;;;;;;1.20;0.88;;;12.50;99.90;;;;;;4937556;29;20193;-94
2023/10/27 07:04:29;;;;;;;1.42;1.00;;;12.60;99.90;;;;;;4938893;29;20292;-93
2023/10/27 07:06:56;;;;;;;1.27;0.80;;;12.90;99.90;;;;;;4938819;29;20201;-92
2023/10/27 07:13:14;;;;;;;1.80;0.85;;;12.70;99.90;;;;;;4894359;29;20223;-92
2023/10/27 07:16:01;;;;;;;1.75;0.80;;;14.90;99.90;;;;;;4877455;29;20226;-91
2023/10/27 07:18:31;;;;;;;1.00;0.80;;;14.40;99.90;;;;;;4917847;29;20303;-91
2023/10/27 07:24:28;;;;;;;1.45;1.30;;;13.00;99.90;;;;;;5769422;23;20255;-91
2023/10/27 07:26:53;;;;;;;1.67;0.80;;;12.70;99.90;;;;;;4986642;28;20196;-93
2023/10/27 07:29:19;;;;;;;0.80;0.70;;;13.60;99.90;;;;;;4982690;28;20477;-93
2023/10/27 07:34:59;;;;;;;0.90;0.80;;;12.90;99.90;;;;;;5263461;23;20231;-92
2023/10/27 07:41:38;;;;;;;;;;;;;;;;;;;;;
2023/10/27 07:48:32;;;;;;;1.10;1.00;;;12.40;99.90;;;;;;4973786;28;20216;-93
2023/10/27 07:51:32;;;;;;;1.00;0.82;;;13.60;99.90;;;;;;4959221;28;20260;-92
2023/10/27 07:53:58;;;;;;;0.73;0.60;;;13.00;99.90;;;;;;4975919;28;20267;-93
2023/10/27 07:56:24;;;;;;;1.53;0.90;;;13.00;99.90;;;;;;4952704;28;20245;-92
2023/10/27 07:58:49;;;;;;;1.00;0.90;;;13.50;99.90;;;;;;4958372;28;20225;-92
2023/10/27 08:01:15;;;;;;;1.20;1.00;;;;;;;;;;4960148;28;20252;-91
2023/10/27 08:27:32;;;;;;;1.65;1.10;;;13.50;99.90;;;;;;5265502;23;20270;-90
2023/10/27 08:29:58;;;;;;;1.15;1.05;;;13.60;99.90;;;;;;4878682;29;20203;-90
2023/10/27 08:32:24;;;;;;;0.73;0.60;;;;;;;;;;4933613;29;20201;-90
2023/10/27 08:34:49;;;;;;;0.80;0.70;;;13.70;99.90;;;;;;4939349;29;20452;-88
2023/10/27 08:37:16;;;;;;;1.43;0.73;;;;;;;;;;4932866;29;20969;-87
2023/10/27 08:39:42;;;;;;;1.35;0.60;;;13.80;99.90;;;;;;4936584;29;20320;-87
2023/10/27 08:42:09;;;;;;;0.75;0.70;;;13.70;99.90;;;;;;4934793;29;20182;-87
2023/10/27 08:44:35;;;;;;;3.20;0.73;;;13.80;99.90;;;;;;4944191;29;20189;-87
2023/10/27 08:47:04;;;;;;;0.70;0.60;;;14.40;99.90;;;;;;4947980;29;20200;-87
2023/10/27 08:49:30;;;;;;;0.60;0.50;;;13.90;99.90;;;;;;4947504;29;20240;-88
2023/10/27 08:52:02;;;;;;;2.25;1.88;;;15.80;99.90;;;;;;4949002;29;20205;-88
2023/10/27 08:54:30;;;;;;;1.08;0.80;;;14.20;99.90;;;;;;4951399;29;20209;-88
2023/10/27 08:56:55;;;;;;;0.90;0.80;;;14.70;99.90;;;;;;4950025;29;20178;-88
2023/10/27 08:59:21;;;;;;;1.33;0.60;;;13.00;99.90;;;;;;4938689;29;20232;-91
2023/10/27 09:01:47;;;;;;;1.00;0.90;;;13.60;99.90;;;;;;4944205;29;20238;-89
2023/10/27 09:04:14;;;;;;;1.53;0.70;;;14.30;99.90;;;;;;4948056;29;20460;-89
2023/10/27 09:06:41;;;;;;;1.55;0.75;;;14.60;99.90;;;;;;4954579;29;20206;-89
2023/10/27 09:09:11;;;;;;;1.02;0.70;;;14.90;99.90;;;;;;4953597;29;20186;-89
2023/10/27 09:11:45;;;;;;;0.93;0.70;;;12.90;99.90;;;;;;4954693;29;20162;-87
2023/10/27 09:14:26;;;;;;;1.77;0.60;;;13.80;99.90;;;;;;4953489;29;20229;-86
2023/10/27 09:17:11;;;;;;;0.70;0.60;;;14.80;99.90;;;;;;4958512;29;20213;-86
2023/10/27 09:19:39;;;;;;;0.70;0.60;;;13.50;99.90;;;;;;4957364;29;20209;-89
2023/10/27 09:22:15;;;;;;;0.70;0.52;;;13.90;99.90;;;;;;4950417;29;20178;-87
2023/10/27 09:32:42;;;;;;;1.10;1.00;;;15.60;99.90;;;;;;4984821;28;20303;-90
2023/10/27 09:35:22;;;;;;;1.08;0.73;;;13.90;99.90;;;;;;4987432;28;20192;-91
2023/10/27 09:37:55;;;;;;;1.33;1.08;;;16.40;99.90;;;;;;4986156;28;20212;-92
2023/10/27 09:40:21;;;;;;;1.27;0.73;;;13.90;99.90;;;;;;4979324;28;20199;-92
2023/10/27 09:42:51;;;;;;;0.70;0.70;;;15.30;99.90;;;;;;4994742;28;20204;-91
2023/10/27 09:45:20;;;;;;;1.35;0.75;;;13.30;99.90;;;;;;4993174;28;20175;-93
2023/10/27 09:48:05;;;;;;;1.33;0.80;;;14.10;99.90;;;;;;4994874;28;20183;-93
2023/10/27 09:50:32;;;;;;;1.17;1.08;;;14.60;99.90;;;;;;4992721;28;20187;-92
2023/10/27 09:52:59;;;;;;;1.40;0.77;;;13.60;99.90;;;;;;4990964;28;20203;-89
2023/10/27 09:55:30;;;;;;;1.40;1.30;;;14.40;99.90;;;;;;4988709;28;20198;-89
2023/10/27 09:57:57;;;;;;;1.45;1.00;;;15.30;99.90;;;;;;4981293;28;20252;-88
2023/10/27 10:00:27;;;;;;;1.55;1.08;;;15.10;99.90;;;;;;4992712;28;20176;-94
2023/10/27 10:02:55;;;;;;;2.08;0.90;;;14.90;99.90;;;;;;4991690;28;20223;-92
2023/10/27 10:05:21;;;;;;;2.47;1.02;;;15.20;99.90;;;;;;4993812;28;20190;-92
2023/10/27 10:07:55;;;;;;;1.13;0.70;;;13.40;99.90;;;;;;4991160;28;20192;-93
2023/10/27 10:10:34;;;;;;;1.98;0.98;;;15.20;99.90;;;;;;4989978;28;21053;-92
2023/10/27 10:13:04;;;;;;;0.80;0.80;;;15.40;99.90;;;;;;5008975;28;20222;-89
2023/10/27 10:15:31;;;;;;;2.88;0.80;;;15.80;99.90;;;;;;5017364;28;20180;-92
2023/10/27 10:17:58;;;;;;;0.80;0.60;;;14.40;99.90;;;;;;4999009;28;20191;-93
2023/10/27 10:20:47;;;;;;;2.38;2.17;;;16.10;99.90;;;;;;4995749;28;20231;-91
2023/10/27 10:23:18;;;;;;;2.13;1.25;;;16.00;99.90;;;;;;4997916;28;20226;-92
2023/10/27 10:25:52;;;;;;;1.20;1.10;;;16.20;99.90;;;;;;4983131;28;20180;-92
2023/10/27 10:28:17;;;;;;;2.83;1.30;;;15.10;99.90;;;;;;4998125;28;20290;-91
2023/10/27 10:30:45;;;;;;;1.87;1.30;;;14.30;99.90;;;;;;5045311;23;20259;-94
2023/10/27 10:33:17;;;;;;;1.67;1.00;;;14.40;99.90;;;;;;5209548;23;20212;-91
2023/10/27 10:35:51;;;;;;;1.08;0.80;;;16.50;99.90;;;;;;5075970;23;20220;-92
2023/10/27 10:38:19;;;;;;;1.58;1.27;;;17.20;99.90;;;;;;4989519;28;20204;-91
2023/10/27 10:40:56;;;;;;;2.33;1.10;;;17.00;99.90;;;;;;5012421;28;20237;-90
2023/10/27 10:43:33;;;;;;;3.53;1.50;;;14.70;99.90;;;;;;4993040;28;20211;-90
2023/10/27 10:46:00;;;;;;;1.40;1.00;;;15.70;99.90;;;;;;4997851;28;20247;-90
2023/10/27 10:48:42;;;;;;;3.53;1.13;;;15.80;99.90;;;;;;5010001;28;20196;-90
2023/10/27 10:53:55;;;;;;;1.45;1.13;;;17.60;99.90;;;;;;4998159;28;20245;-90
2023/10/27 10:56:24;;;;;;;1.60;1.17;;;16.40;99.90;;;;;;4993322;28;20355;-91
2023/10/27 10:58:50;;;;;;;2.38;1.38;;;16.40;99.90;;;;;;4986317;28;20240;-89
2023/10/27 11:01:20;;;;;;;2.57;0.90;;;16.10;99.90;;;;;;4978719;28;20196;-90
2023/10/27 11:03:53;;;;;;;2.10;1.30;;;16.40;99.90;;;;;;4975299;28;20468;-90
2023/10/27 11:06:28;;;;;;;2.30;1.35;;;17.80;99.90;;;;;;4973917;28;20746;-91
2023/10/27 11:08:54;;;;;;;4.95;3.97;;;17.90;99.90;;;;;;4973801;28;20268;-91
2023/10/27 11:11:21;;;;;;;2.45;1.10;;;18.90;99.90;;;;;;4970990;28;20240;-91
2023/10/27 11:13:51;;;;;;;3.90;1.13;;;18.80;99.90;;;;;;4976634;28;20212;-91
2023/10/27 11:16:24;;;;;;;3.70;1.25;;;18.80;97.90;;;;;;4966415;28;20181;-92
2023/10/27 11:18:57;;;;;;;1.40;1.10;;;19.00;98.30;;;;;;4972167;28;20244;-90
2023/10/27 11:21:24;;;;;;;5.30;1.13;;;18.20;98.20;;;;;;4974606;28;20224;-90
2023/10/27 11:23:50;;;;;;;1.45;0.90;;;18.40;99.90;;;;;;4987581;28;20212;-90
2023/10/27 11:26:18;;;;;;;1.70;0.90;;;17.40;99.00;;;;;;4968390;28;20254;-91
2023/10/27 11:28:46;;;;;;;2.47;1.02;;;16.90;99.90;;;;;;4973744;28;20223;-90
2023/10/27 11:31:15;;;;;;;2.22;1.60;;;17.00;99.90;;;;;;4972008;28;20192;-91
2023/10/27 11:34:00;;;;;;;1.60;1.35;;;17.50;99.90;;;;;;4971895;28;20313;-90
2023/10/27 11:36:28;;;;;;;3.42;2.90;;;16.00;99.90;;;;;;4972511;28;20200;-91
2023/10/27 11:38:55;;;;;;;1.98;1.00;;;16.50;99.90;;;;;;4971476;28;20314;-91
2023/10/27 11:41:21;;;;;;;1.60;1.38;;;16.10;99.90;;;;;;4972142;28;20224;-90
2023/10/27 11:43:46;;;;;;;2.57;1.20;;;16.20;99.90;;;;;;4973267;28;20204;-90
2023/10/27 11:46:14;;;;;;;3.57;1.50;;;16.00;99.90;;;;;;4974617;28;20180;-90
2023/10/27 11:48:41;;;;;;;1.80;1.40;;;16.30;99.90;;;;;;4974630;28;20319;-91
2023/10/27 11:51:06;;;;;;;1.75;1.02;;;16.40;99.90;;;;;;4972575;28;20207;-91
2023/10/27 11:53:35;;;;;;;2.80;1.10;;;15.70;99.90;;;;;;4976642;28;20208;-91
2023/10/27 11:56:05;;;;;;;1.67;0.93;;;16.00;99.90;;;;;;4975975;28;20447;-91
2023/10/27 11:58:31;;;;;;;3.60;1.08;;;16.20;99.90;;;;;;4970385;28;20211;-90
2023/10/27 12:00:56;;;;;;;2.03;1.17;;;15.90;99.90;;;;;;4973194;28;20614;-91
2023/10/27 12:03:22;;;;;;;3.63;1.20;;;16.60;99.90;;;;;;4975402;28;20507;-91
2023/10/27 12:05:47;;;;;;;1.80;1.10;;;16.30;99.90;;;;;;4973532;28;20656;-91
2023/10/27 12:08:13;;;;;;;1.53;0.97;;;16.20;99.40;;;;;;4974697;28;20195;-89
2023/10/27 12:10:38;;;;;;;1.53;1.00;;;16.80;99.90;;;;;;4969498;28;20515;-89
2023/10/27 12:13:06;;;;;;;1.50;0.90;;;16.80;99.90;;;;;;4970545;28;20332;-88
2023/10/27 12:15:33;;;;;;;2.38;1.17;;;16.80;99.90;;;;;;4975572;28;20223;-87
2023/10/27 12:17:59;;;;;;;2.53;2.20;;;16.70;99.80;;;;;;4974751;28;20231;-87
2023/10/27 12:20:26;;;;;;;2.10;1.87;;;16.70;99.50;;;;;;4975361;28;20207;-90
2023/10/27 12:22:54;;;;;;;1.55;0.85;;;16.30;99.80;;;;;;4973987;28;20559;-87
2023/10/27 12:25:20;;;;;;;1.17;0.90;;;16.30;99.90;;;;;;4974672;28;20175;-87
2023/10/27 12:27:46;;;;;;;2.10;1.10;;;16.20;99.90;;;;;;4976194;28;20195;-89
2023/10/27 12:30:12;;;;;;;1.87;0.90;;;16.30;99.90;;;;;;4995620;28;20459;-88
2023/10/27 12:32:38;;;;;;;1.90;1.10;;;16.20;99.90;;;;;;4980698;28;20203;-89
2023/10/27 12:35:04;;;;;;;2.97;0.90;;;16.30;99.90;;;;;;4975521;28;20278;-89
2023/10/27 12:37:31;;;;;;;1.50;1.20;;;16.30;99.90;;;;;;4971480;28;20298;-89
2023/10/27 12:39:56;;;;;;;1.08;0.98;;;16.50;99.90;;;;;;4976530;28;20439;-88
2023/10/27 12:42:23;;;;;;;5.30;1.00;;;16.00;99.90;;;;;;4975741;28;20237;-87
2023/10/27 12:44:50;;;;;;;2.40;1.35;;;16.40;99.90;;;;;;4974309;28;20184;-88
2023/10/27 12:47:16;;;;;;;1.95;0.93;;;16.90;99.90;;;;;;4977263;28;20184;-88
2023/10/27 12:49:43;;;;;;;2.10;1.00;;;16.40;99.90;;;;;;4978369;28;20554;-87
2023/10/27 12:52:08;;;;;;;11.05;6.90;;;16.30;99.90;;;;;;4973984;28;20471;-90
2023/10/27 12:54:37;;;;;;;3.27;0.83;;;16.40;99.90;;;;;;4972217;28;20238;-89
2023/10/27 12:57:03;;;;;;;2.15;1.00;;;16.10;99.90;;;;;;4977170;28;20184;-89
2023/10/27 12:59:29;;;;;;;1.05;0.60;;;16.00;99.90;;;;;;4976666;28;20212;-90
2023/10/27 13:01:55;;;;;;;0.90;0.73;;;15.90;99.90;;;;;;4974411;28;20188;-90
2023/10/27 13:04:20;;;;;;;1.43;1.00;;;15.80;99.90;;;;;;4973411;28;20736;-89
2023/10/27 13:06:46;;;;;;;1.20;0.90;;;16.30;99.90;;;;;;4976558;28;20445;-89
2023/10/27 13:09:12;;;;;;;4.20;1.20;;;16.00;99.90;;;;;;4983054;28;20182;-88
2023/10/27 13:11:38;;;;;;;1.83;1.30;;;16.10;99.90;;;;;;4963570;28;20623;-88
2023/10/27 13:14:04;;;;;;;4.20;1.40;;;18.70;99.90;;;;;;4975650;28;20478;-89
2023/10/27 13:16:30;;;;;;;1.40;1.00;;;15.70;99.90;;;;;;4975840;28;20200;-89
2023/10/27 13:18:55;;;;;;;1.13;0.80;;;14.90;99.90;;;;;;4982921;28;20211;-87
2023/10/27 13:21:21;;;;;;;2.23;1.10;;;15.50;99.90;;;;;;4973682;28;20247;-88
2023/10/27 13:23:47;;;;;;;3.08;0.88;;;16.70;99.90;;;;;;4976307;28;20594;-87
2023/10/27 13:26:13;;;;;;;1.33;0.90;;;16.00;99.90;;;;;;4980383;28;20180;-88
2023/10/27 13:28:38;;;;;;;2.17;0.97;;;16.10;99.90;;;;;;4968582;28;20227;-87
2023/10/27 13:31:04;;;;;;;0.97;0.87;;;15.00;99.90;;;;;;4963289;28;20734;-89
2023/10/27 13:33:30;;;;;;;3.10;1.75;;;17.80;99.90;;;;;;4985629;28;20212;-87
2023/10/27 13:36:00;;;;;;;2.00;1.03;;;17.40;99.90;;;;;;4990805;28;20207;-86
2023/10/27 13:38:27;;;;;;;1.10;0.98;;;15.30;99.90;;;;;;4979725;28;20212;-88
2023/10/27 13:40:54;;;;;;;1.65;0.73;;;15.80;99.90;;;;;;4978337;28;20180;-87
2023/10/27 13:43:21;;;;;;;0.93;0.75;;;15.40;99.90;;;;;;4987319;28;20213;-89
2023/10/27 13:45:56;;;;;;;1.00;0.80;;;15.30;99.90;;;;;;4979229;28;20184;-86
2023/10/27 13:48:23;;;;;;;0.80;0.77;;;15.40;99.90;;;;;;4972763;28;20191;-87
2023/10/27 13:50:48;;;;;;;1.77;1.30;;;17.90;99.90;;;;;;4982768;28;20192;-88
2023/10/27 13:53:14;;;;;;;2.33;0.90;;;14.90;99.90;;;;;;4973308;28;20751;-87
2023/10/27 13:55:43;;;;;;;2.10;1.23;;;15.30;99.90;;;;;;4974327;28;20196;-88
2023/10/27 13:58:08;;;;;;;1.40;0.85;;;15.40;99.90;;;;;;4971457;28;20211;-87
2023/10/27 14:00:34;;;;;;;3.30;1.50;;;15.20;99.90;;;;;;4974364;28;20188;-87
2023/10/27 14:02:59;;;;;;;1.80;1.20;;;15.20;99.90;;;;;;4980628;28;20200;-88
2023/10/27 14:05:25;;;;;;;3.03;0.80;;;15.70;99.90;;;;;;4973321;28;20181;-88
2023/10/27 14:07:51;;;;;;;1.70;1.00;;;15.00;99.90;;;;;;4972913;28;20203;-88
2023/10/27 14:10:18;;;;;;;1.00;0.90;;;15.50;99.90;;;;;;4981849;28;20244;-88
2023/10/27 14:12:44;;;;;;;1.20;0.90;;;15.60;99.90;;;;;;4977107;28;20539;-88
2023/10/27 14:15:13;;;;;;;2.80;1.27;;;15.90;99.90;;;;;;4984539;28;20219;-86
2023/10/27 14:17:38;;;;;;;1.08;0.73;;;15.50;99.90;;;;;;4986881;28;20271;-86
2023/10/27 14:20:05;;;;;;;1.03;0.77;;;15.80;99.90;;;;;;4962549;28;20587;-87
2023/10/27 14:22:31;;;;;;;1.48;0.93;;;15.60;99.90;;;;;;4979717;28;20245;-88
2023/10/27 14:24:58;;;;;;;0.90;0.67;;;15.90;99.90;;;;;;4978289;28;20180;-88
2023/10/27 14:27:24;;;;;;;3.70;1.05;;;15.60;99.90;;;;;;4979245;28;20215;-88
2023/10/27 14:29:50;;;;;;;2.03;0.80;;;15.80;99.90;;;;;;4976157;28;20200;-88
2023/10/27 14:32:16;;;;;;;2.58;1.10;;;16.30;99.90;;;;;;4975651;28;20562;-88
2023/10/27 14:34:41;;;;;;;3.27;2.57;;;15.20;99.90;;;;;;4996546;28;20216;-88
2023/10/27 14:37:07;;;;;;;2.70;1.27;;;15.20;99.90;;;;;;4975306;28;20196;-89
2023/10/27 14:39:37;;;;;;;1.63;1.00;;;15.00;99.90;;;;;;4971446;28;20223;-89
2023/10/27 14:42:04;;;;;;;1.30;1.13;;;15.50;99.90;;;;;;4973674;28;20180;-89
2023/10/27 14:44:29;;;;;;;1.85;1.10;;;14.80;99.90;;;;;;4970577;28;20208;-89
2023/10/27 14:46:55;;;;;;;2.87;1.33;;;15.10;99.90;;;;;;4971968;28;20197;-89
2023/10/27 14:49:20;;;;;;;3.70;0.80;;;15.30;99.90;;;;;;4972701;28;20191;-89
2023/10/27 14:51:46;;;;;;;1.63;0.90;;;15.10;99.90;;;;;;4972331;28;20192;-89
2023/10/27 14:54:11;;;;;;;1.53;1.03;;;15.40;99.90;;;;;;4977162;28;20579;-89
2023/10/27 14:56:38;;;;;;;3.50;1.67;;;16.20;99.90;;;;;;4983043;28;20204;-83
2023/10/27 14:59:03;;;;;;;4.75;1.92;;;14.80;99.90;;;;;;4990752;28;20223;-86
2023/10/27 15:01:29;;;;;;;4.57;2.77;;;;;;;;;;4980208;28;20184;-85
2023/10/27 15:03:55;;;;;;;1.60;1.10;;;14.70;99.90;;;;;;4980079;28;20223;-85
2023/10/27 15:06:21;;;;;;;2.33;0.80;;;15.40;99.90;;;;;;4986346;28;20192;-87
2023/10/27 15:08:46;;;;;;;1.97;1.20;;;14.80;99.90;;;;;;4980891;28;20204;-88
2023/10/27 15:11:13;;;;;;;4.80;1.20;;;14.30;99.90;;;;;;4968870;28;20317;-87
2023/10/27 15:13:39;;;;;;;2.17;1.08;;;15.00;99.90;;;;;;4971273;28;20211;-87
2023/10/27 15:16:07;;;;;;;1.07;0.80;;;15.20;99.90;;;;;;4970982;28;20192;-86
2023/10/27 15:18:33;;;;;;;7.85;1.00;;;15.00;99.90;;;;;;4973200;28;20210;-88
2023/10/27 15:21:03;;;;;;;1.05;0.80;;;14.90;99.90;;;;;;4975192;28;20557;-88
2023/10/27 15:23:29;;;;;;;3.97;1.48;;;14.90;99.90;;;;;;4970963;28;20226;-88
2023/10/27 15:25:57;;;;;;;2.37;0.90;;;14.90;99.90;;;;;;4969476;28;20564;-88
2023/10/27 15:28:23;;;;;;;2.50;1.30;;;15.20;99.90;;;;;;4968687;28;20219;-89
2023/10/27 15:30:57;;;;;;;1.40;1.30;;;14.80;99.90;;;;;;4971768;28;20220;-89
2023/10/27 15:33:22;;;;;;;2.05;1.00;;;14.40;99.90;;;;;;4971095;28;20222;-89
2023/10/27 15:35:48;;;;;;;1.40;1.03;;;14.30;99.90;;;;;;4972224;28;20523;-88
2023/10/27 15:38:13;;;;;;;1.60;0.87;;;15.00;99.90;;;;;;4971884;28;20200;-89
2023/10/27 15:40:39;;;;;;;1.33;0.90;;;14.50;99.90;;;;;;4969471;28;20211;-88
2023/10/27 15:43:04;;;;;;;1.50;0.90;;;14.70;99.90;;;;;;4968653;28;20204;-88
2023/10/27 15:45:30;;;;;;;1.27;1.17;;;14.70;99.90;;;;;;4970527;28;20201;-88
2023/10/27 15:47:55;;;;;;;2.63;1.37;;;14.50;99.90;;;;;;4973494;28;20495;-88
2023/10/27 15:50:21;;;;;;;1.30;1.10;;;14.10;99.90;;;;;;4971817;28;20219;-88
2023/10/27 15:52:47;;;;;;;1.70;0.98;;;14.30;99.90;;;;;;4970517;28;20211;-88
2023/10/27 15:55:13;;;;;;;2.10;1.00;;;14.40;99.90;;;;;;4977171;28;20192;-88
2023/10/27 15:57:39;;;;;;;3.85;2.10;;;14.30;99.90;;;;;;4970572;28;20203;-87
2023/10/27 16:00:09;;;;;;;1.73;1.40;;;14.30;99.90;;;;;;4979840;28;20207;-89
2023/10/27 16:02:35;;;;;;;1.92;1.10;;;14.10;99.90;;;;;;4981431;28;20277;-88
2023/10/27 16:05:01;;;;;;;1.77;1.20;;;14.00;99.90;;;;;;4983883;28;20193;-89
2023/10/27 16:07:27;;;;;;;1.23;1.13;;;14.20;99.90;;;;;;4973542;28;20661;-89
2023/10/27 16:09:53;;;;;;;1.83;0.90;;;14.20;99.90;;;;;;4977190;28;20239;-89
2023/10/27 16:12:18;;;;;;;3.75;1.98;;;14.20;99.90;;;;;;4973399;28;20704;-89
2023/10/27 16:14:45;;;;;;;2.80;2.27;;;13.90;99.90;;;;;;4972587;28;20219;-89
2023/10/27 16:17:11;;;;;;;1.55;0.95;;;13.90;99.90;;;;;;4971700;28;20220;-89
2023/10/27 16:19:37;;;;;;;1.10;0.70;;;13.90;99.90;;;;;;4971210;28;20232;-89
2023/10/27 16:22:02;;;;;;;2.83;0.90;;;13.80;99.90;;;;;;4970104;28;20196;-89
2023/10/27 16:24:28;;;;;;;1.30;1.10;;;14.10;99.90;;;;;;4969268;28;20235;-87
2023/10/27 16:26:56;;;;;;;1.10;0.70;;;14.10;99.90;;;;;;4971959;28;20196;-88
2023/10/27 16:29:22;;;;;;;1.08;0.80;;;13.90;99.90;;;;;;4966847;28;20197;-88
2023/10/27 16:31:48;;;;;;;3.10;1.45;;;13.60;99.90;;;;;;4973189;28;20184;-88
2023/10/27 16:34:14;;;;;;;2.40;1.10;;;14.10;99.90;;;;;;4972077;28;20204;-87
2023/10/27 16:36:40;;;;;;;2.25;1.35;;;13.80;99.90;;;;;;4967523;28;20188;-88
2023/10/27 16:39:07;;;;;;;2.05;1.00;;;13.90;99.90;;;;;;4968267;28;20201;-88
2023/10/27 16:41:33;;;;;;;1.58;1.25;;;13.70;99.90;;;;;;4968886;28;20188;-88
2023/10/27 16:43:58;;;;;;;3.10;1.33;;;13.50;99.90;;;;;;4969790;28;20646;-88
2023/10/27 16:46:25;;;;;;;1.27;0.97;;;13.40;99.90;;;;;;4970543;28;20296;-87
2023/10/27 16:48:51;;;;;;;2.45;1.10;;;13.60;99.90;;;;;;4969670;28;20185;-87
2023/10/27 16:51:18;;;;;;;1.20;1.10;;;13.30;99.90;;;;;;4973937;28;20684;-88
2023/10/27 16:53:47;;;;;;;1.83;1.25;;;13.20;99.90;;;;;;4968792;28;20215;-88
2023/10/27 16:56:17;;;;;;;1.60;1.27;;;13.30;99.90;;;;;;4969235;28;20515;-87
2023/10/27 16:58:43;;;;;;;1.13;1.00;;;13.50;99.90;;;;;;4972103;28;20611;-87
2023/10/27 17:01:08;;;;;;;1.30;1.20;;;13.40;99.90;;;;;;4975744;28;20184;-88
2023/10/27 17:03:34;;;;;;;1.63;1.50;;;13.40;99.90;;;;;;4976466;28;20235;-88
2023/10/27 17:06:01;;;;;;;1.20;1.10;;;13.40;99.90;;;;;;4976628;28;20706;-88
2023/10/27 17:08:27;;;;;;;2.65;1.52;;;13.80;99.90;;;;;;4971459;28;20449;-88
2023/10/27 17:10:58;;;;;;;4.20;3.80;;;13.60;99.90;;;;;;4975081;28;20184;-88
2023/10/27 17:13:26;;;;;;;3.35;2.50;;;13.20;99.90;;;;;;4970786;28;20239;-88
2023/10/27 17:16:27;;;;;;;3.15;2.65;;;13.40;99.90;;;;;;4973149;28;20315;-87
2023/10/27 17:18:53;;;;;;;4.55;2.35;;;12.70;99.90;;;;;;4915221;29;20216;-87
2023/10/27 17:21:20;;;;;;;3.10;2.60;;;13.40;99.90;;;;;;4960032;28;20192;-87
2023/10/27 17:24:04;;;;;;;5.35;3.50;;;13.20;99.90;;;;;;4974290;28;20474;-87
2023/10/27 17:26:30;;;;;;;4.60;2.65;;;13.00;99.90;;;;;;4972682;28;20242;-86
2023/10/27 17:28:56;;;;;;;3.00;2.58;;;13.00;99.90;;;;;;4972636;28;20192;-86
2023/10/27 17:31:23;;;;;;;4.33;2.47;;;12.70;99.90;;;;;;4972886;28;20243;-88
2023/10/27 17:33:52;;;;;;;10.98;3.40;;;12.60;99.90;;;;;;4970998;28;20239;-88
2023/10/27 17:36:22;;;;;;;2.75;2.17;;;13.50;99.90;;;;;;4975040;28;20761;-88
2023/10/27 17:38:49;;;;;;;4.43;2.88;;;12.40;99.90;;;;;;4970968;28;20204;-88
2023/10/27 17:41:16;;;;;;;2.88;2.50;;;12.90;99.90;;;;;;4974163;28;20267;-87
2023/10/27 17:43:42;;;;;;;3.10;2.80;;;12.40;99.90;;;;;;4987539;28;20211;-87
2023/10/27 17:46:09;;;;;;;5.20;2.43;;;12.30;99.90;;;;;;4976999;28;20210;-87
2023/10/27 17:48:38;;;;;;;4.07;2.25;;;12.10;99.90;;;;;;4977719;28;20221;-87
2023/10/27 17:51:07;;;;;;;4.43;2.30;;;12.10;99.90;;;;;;4974630;28;20222;-87
2023/10/27 17:53:33;;;;;;;7.95;5.05;;;12.00;99.90;;;;;;4975789;28;20219;-87
2023/10/27 17:55:59;;;;;;;5.63;4.38;;;12.50;99.90;;;;;;4980035;28;20583;-87
2023/10/27 17:58:25;;;;;;;5.30;3.50;;;11.80;99.90;;;;;;4980479;28;20197;-87
2023/10/27 18:00:52;;;;;;;3.80;3.40;;;12.10;99.90;;;;;;4983315;28;20619;-88
2023/10/27 18:03:18;;;;;;;4.95;3.95;;;11.90;99.90;;;;;;4982558;28;20202;-88
2023/10/27 18:05:44;;;;;;;5.60;4.40;;;11.80;99.90;;;;;;4979528;28;20216;-88
2023/10/27 18:08:11;;;;;;;5.13;3.92;;;12.90;99.90;;;;;;4998804;28;20450;-87
2023/10/27 18:10:46;;;;;;;4.32;3.83;;;14.00;99.90;;;;;;4976439;28;20197;-88
2023/10/27 18:13:15;;;;;;;3.92;3.15;;;14.30;99.90;;;;;;4970069;28;20212;-87
2023/10/27 18:15:43;;;;;;;4.38;2.92;;;12.40;99.90;;;;;;4971614;28;20620;-87
2023/10/27 18:18:09;;;;;;;3.30;3.00;;;;;;;;;;4975488;28;20289;-88
2023/10/27 18:20:38;;;;;;;2.88;2.67;;;11.90;99.90;;;;;;4972405;28;20750;-86
2023/10/27 18:23:04;;;;;;;4.30;2.90;;;;;;;;;;4974189;28;21318;-87
2023/10/27 18:25:29;;;;;;;6.45;3.22;;;11.50;99.90;;;;;;4971581;28;20187;-87
2023/10/27 18:27:57;;;;;;;8.37;4.40;;;11.80;99.90;;;;;;4971431;28;20595;-87
2023/10/27 18:30:23;;;;;;;4.07;3.63;;;11.60;99.90;;;;;;4970716;28;20603;-87
2023/10/27 18:32:53;;;;;;;5.57;2.05;;;12.80;99.90;;;;;;4972172;28;20277;-88
2023/10/27 18:35:18;;;;;;;6.18;3.47;;;13.10;99.90;;;;;;4970132;28;20202;-88
2023/10/27 18:37:44;;;;;;;4.40;3.43;;;11.60;99.90;;;;;;4970358;28;20206;-88
2023/10/27 18:40:09;;;;;;;6.50;3.17;;;12.20;99.90;;;;;;4972195;28;20279;-87
2023/10/27 18:42:36;;;;;;;5.13;3.30;;;11.70;99.90;;;;;;4970692;28;20204;-87
2023/10/27 18:45:02;;;;;;;4.07;3.67;;;12.10;99.90;;;;;;4968750;28;20279;-87
2023/10/27 18:47:29;;;;;;;5.13;3.80;;;12.00;99.90;;;;;;4972174;28;20271;-86
2023/10/27 18:49:55;;;;;;;5.70;3.20;;;12.00;99.90;;;;;;4975986;28;20191;-87
2023/10/27 18:52:21;;;;;;;5.10;3.80;;;11.80;99.90;;;;;;4970574;28;20553;-86
2023/10/27 18:54:46;;;;;;;3.40;3.10;;;12.30;99.90;;;;;;4972395;28;20534;-86
2023/10/27 18:57:15;;;;;;;3.20;2.90;;;11.70;99.90;;;;;;4974744;28;20215;-87
2023/10/27 18:59:40;;;;;;;3.25;2.45;;;12.00;99.90;;;;;;4970149;28;20718;-86
2023/10/27 19:02:09;;;;;;;4.57;3.03;;;11.70;99.90;;;;;;4977063;28;20195;-87
2023/10/27 19:04:39;;;;;;;3.42;2.65;;;12.00;99.90;;;;;;4970573;28;20333;-87
2023/10/27 19:07:05;;;;;;;4.50;3.33;;;11.90;99.90;;;;;;4970958;28;20729;-89
2023/10/27 19:09:34;;;;;;;3.37;2.50;;;11.40;99.90;;;;;;4968643;28;20194;-89
2023/10/27 19:12:01;;;;;;;6.28;2.63;;;12.20;99.90;;;;;;4979075;28;20453;-88
2023/10/27 19:14:27;;;;;;;4.90;2.00;;;12.00;99.90;;;;;;4975398;28;20210;-89
2023/10/27 19:16:53;;;;;;;3.15;2.85;;;12.20;99.90;;;;;;4972125;28;20179;-89
2023/10/27 19:19:19;;;;;;;5.70;2.70;;;12.50;99.90;;;;;;4974637;28;20214;-90
2023/10/27 19:21:44;;;;;;;5.30;2.47;;;12.50;99.90;;;;;;4973848;28;20190;-89
2023/10/27 19:24:11;;;;;;;3.87;2.90;;;12.20;99.90;;;;;;4967016;28;20208;-90
2023/10/27 19:26:37;;;;;;;5.13;2.85;;;12.60;99.90;;;;;;4971083;28;20193;-89
2023/10/27 19:29:03;;;;;;;4.53;2.97;;;12.50;99.90;;;;;;4970721;28;20187;-90
2023/10/27 19:31:28;;;;;;;3.50;3.20;;;12.40;99.90;;;;;;4973140;28;20722;-88